createdAt,value
2023-01-28T00:01:19.980Z,18.10
2023-01-28T00:04:23.000Z,18.60
2023-01-28T00:07:24.921Z,20.00
2023-01-28T00:10:26.366Z,20.50
2023-01-28T00:13:27.964Z,19.10
2023-01-28T00:16:33.102Z,20.90
2023-01-28T00:19:36.011Z,19.50
2023-01-28T00:22:37.999Z,19.20
2023-01-28T00:25:38.038Z,18.70
2023-01-28T00:28:38.472Z,19.40
2023-01-28T00:31:42.529Z,18.70
2023-01-28T00:34:43.008Z,19.30
2023-01-28T00:37:45.100Z,19.00
2023-01-28T00:40:47.072Z,20.00
2023-01-28T00:43:49.037Z,19.60
2023-01-28T00:46:50.033Z,17.60
2023-01-28T00:49:51.045Z,17.50
2023-01-28T00:52:51.150Z,17.50
2023-01-28T00:55:53.067Z,16.80
2023-01-28T00:58:54.058Z,16.70
2023-01-28T01:01:55.097Z,14.90
2023-01-28T01:05:06.178Z,15.20
2023-01-28T01:08:07.109Z,16.70
2023-01-28T01:11:12.043Z,16.30
2023-01-28T01:14:13.142Z,16.40
2023-01-28T01:17:13.069Z,16.40
2023-01-28T01:20:13.091Z,15.90
2023-01-28T01:23:15.570Z,16.70
2023-01-28T01:26:19.087Z,17.20
2023-01-28T01:29:12.183Z,16.70
2023-01-28T01:32:14.333Z,17.30
2023-01-28T01:35:23.156Z,17.30
2023-01-28T01:38:24.114Z,16.70
2023-01-28T01:41:35.103Z,16.20
2023-01-28T01:45:03.501Z,17.00
2023-01-28T01:48:13.137Z,15.30
2023-01-28T01:51:21.136Z,15.90
2023-01-28T01:54:22.198Z,15.50
2023-01-28T01:57:25.598Z,17.10
2023-01-28T02:00:26.484Z,16.30
2023-01-28T02:03:27.230Z,16.90
2023-01-28T02:06:27.151Z,14.80
2023-01-28T02:09:43.186Z,16.30
2023-01-28T02:12:47.174Z,14.80
2023-01-28T02:15:57.792Z,15.00
2023-01-28T02:19:00.146Z,15.80
2023-01-28T02:22:14.221Z,16.30
2023-01-28T02:25:18.811Z,14.20
2023-01-28T02:28:34.178Z,16.60
2023-01-28T02:31:43.469Z,15.60
2023-01-28T02:35:01.206Z,15.80
2023-01-28T02:38:07.178Z,17.10
2023-01-28T02:41:13.324Z,16.10
2023-01-28T02:44:16.208Z,17.00
2023-01-28T02:47:34.208Z,15.50
2023-01-28T02:50:41.934Z,15.60
2023-01-28T02:54:05.317Z,15.10
2023-01-28T02:57:40.497Z,13.40
2023-01-28T03:00:47.283Z,16.50
2023-01-28T03:03:52.290Z,14.50
2023-01-28T03:06:58.389Z,15.10
2023-01-28T03:10:00.261Z,12.20
2023-01-28T03:13:24.314Z,16.10
2023-01-28T03:16:46.274Z,15.80
2023-01-28T03:20:04.513Z,16.80
2023-01-28T03:23:23.304Z,17.50
2023-01-28T03:26:45.825Z,17.40
2023-01-28T03:30:05.437Z,14.80
2023-01-28T03:33:23.700Z,15.80
2023-01-28T03:36:41.289Z,15.90
2023-01-28T03:40:00.295Z,14.30
2023-01-28T03:46:02.409Z,16.80
2023-01-28T03:49:02.293Z,16.70
2023-01-28T03:52:04.836Z,16.00
2023-01-28T03:55:12.583Z,14.70
2023-01-28T03:58:14.673Z,14.60
2023-01-28T04:01:14.645Z,16.00
2023-01-28T04:04:29.596Z,17.40
2023-01-28T04:07:30.369Z,15.40
2023-01-28T04:10:42.329Z,15.80
2023-01-28T04:13:53.414Z,15.70
2023-01-28T04:17:01.450Z,18.10
2023-01-28T04:20:04.374Z,17.70
2023-01-28T04:23:07.371Z,16.40
2023-01-28T04:26:07.347Z,15.70
2023-01-28T04:29:10.403Z,16.30
2023-01-28T04:32:15.381Z,15.50
2023-01-28T04:35:36.404Z,16.10
2023-01-28T04:39:02.436Z,16.10
2023-01-28T04:42:02.599Z,16.30
2023-01-28T04:45:22.413Z,15.20
2023-01-28T04:48:47.465Z,16.60
2023-01-28T04:52:13.554Z,16.70
2023-01-28T04:55:35.452Z,16.10
2023-01-28T04:58:38.853Z,15.30
2023-01-28T05:01:44.660Z,14.90
2023-01-28T05:04:45.439Z,15.10
2023-01-28T05:08:13.429Z,15.20
2023-01-28T05:11:15.864Z,16.90
2023-01-28T05:14:20.655Z,14.90
2023-01-28T05:17:33.532Z,13.00
2023-01-28T05:20:33.475Z,16.20
2023-01-28T05:23:35.547Z,14.90
2023-01-28T05:26:38.372Z,17.10
2023-01-28T05:29:48.018Z,16.10
2023-01-28T05:32:52.075Z,14.30
2023-01-28T05:35:57.480Z,15.20
2023-01-28T05:39:04.278Z,15.20
2023-01-28T05:42:05.843Z,17.80
2023-01-28T05:45:12.181Z,16.10
2023-01-28T05:48:37.858Z,15.30
2023-01-28T05:51:54.746Z,15.30
2023-01-28T05:54:58.748Z,17.00
2023-01-28T05:58:03.675Z,14.80
2023-01-28T06:01:09.182Z,15.30
2023-01-28T06:04:15.716Z,15.90
2023-01-28T06:07:16.456Z,17.00
2023-01-28T06:10:17.895Z,14.10
2023-01-28T06:13:22.567Z,15.70
2023-01-28T06:16:42.574Z,15.00
2023-01-28T06:19:54.558Z,18.50
2023-01-28T06:22:58.667Z,17.00
2023-01-28T06:25:59.557Z,14.50
2023-01-28T06:29:00.632Z,17.30
2023-01-28T06:32:00.655Z,15.90
2023-01-28T06:35:04.598Z,17.60
2023-01-28T06:38:05.617Z,16.20
2023-01-28T06:41:06.822Z,17.20
2023-01-28T06:44:16.637Z,16.80
2023-01-28T06:47:16.636Z,18.80
2023-01-28T06:50:17.853Z,16.40
2023-01-28T06:53:20.584Z,16.30
2023-01-28T06:56:21.633Z,15.00
2023-01-28T06:59:22.621Z,17.20
2023-01-28T07:02:25.360Z,15.50
2023-01-28T07:05:27.653Z,15.00
2023-01-28T07:08:28.060Z,16.40
2023-01-28T07:11:28.622Z,14.00
2023-01-28T07:14:30.752Z,16.10
2023-01-28T07:17:34.697Z,17.30
2023-01-28T07:20:34.697Z,14.40
2023-01-28T07:23:35.773Z,14.80
2023-01-28T07:26:35.767Z,15.30
2023-01-28T07:29:37.651Z,15.80
2023-01-28T07:35:39.731Z,14.30
2023-01-28T07:38:39.689Z,16.50
2023-01-28T07:41:42.180Z,15.10
2023-01-28T07:45:02.710Z,15.90
2023-01-28T07:48:08.731Z,15.00
2023-01-28T07:51:11.950Z,15.10
2023-01-28T07:54:12.720Z,16.30
2023-01-28T07:57:12.846Z,14.20
2023-01-28T08:00:14.035Z,16.10
2023-01-28T08:03:28.866Z,16.70
2023-01-28T08:06:28.749Z,16.40
2023-01-28T08:09:29.757Z,15.00
2023-01-28T08:12:30.950Z,16.10
2023-01-28T08:15:32.816Z,14.80
2023-01-28T08:18:34.894Z,17.40
2023-01-28T08:21:35.870Z,16.00
2023-01-28T08:24:35.909Z,16.00
2023-01-28T08:27:35.846Z,16.50
2023-01-28T08:30:35.951Z,16.70
2023-01-28T08:33:35.896Z,16.60
2023-01-28T08:36:35.848Z,16.60
2023-01-28T08:39:35.858Z,17.40
2023-01-28T08:42:39.998Z,18.10
2023-01-28T08:45:42.893Z,18.30
2023-01-28T08:48:45.100Z,16.60
2023-01-28T08:51:45.867Z,18.10
2023-01-28T08:54:50.296Z,17.40
2023-01-28T08:57:53.897Z,17.10
2023-01-28T09:01:01.081Z,16.70
2023-01-28T09:04:02.069Z,17.30
2023-01-28T09:07:07.146Z,14.20
2023-01-28T09:10:11.921Z,16.50
2023-01-28T09:13:19.087Z,17.00
2023-01-28T09:16:20.005Z,17.10
2023-01-28T09:19:22.319Z,17.80
2023-01-28T09:22:24.964Z,17.80
2023-01-28T09:25:24.990Z,18.70
2023-01-28T09:28:25.921Z,17.90
2023-01-28T09:31:28.095Z,19.20
2023-01-28T09:40:33.948Z,16.70
2023-01-28T09:43:39.019Z,16.60
2023-01-28T09:46:45.074Z,16.60
2023-01-28T09:49:59.040Z,17.70
2023-01-28T09:52:59.011Z,17.00
2023-01-28T09:56:03.968Z,19.70
2023-01-28T09:59:10.791Z,15.90
2023-01-28T10:02:43.019Z,17.30
2023-01-28T10:05:54.043Z,17.80
2023-01-28T10:09:19.033Z,16.20
2023-01-28T10:12:25.251Z,17.20
2023-01-28T10:15:38.035Z,16.90
2023-01-28T10:19:05.154Z,16.90
2023-01-28T10:22:29.083Z,15.80
2023-01-28T10:25:34.023Z,14.70
2023-01-28T10:28:42.072Z,16.30
2023-01-28T10:31:47.113Z,15.30
2023-01-28T10:34:51.249Z,17.00
2023-01-28T10:37:52.711Z,14.20
2023-01-28T10:40:56.038Z,16.60
2023-01-28T10:43:58.797Z,15.30
2023-01-28T10:46:59.058Z,14.50
2023-01-28T10:50:02.070Z,15.50
2023-01-28T10:53:09.179Z,15.20
2023-01-28T10:56:12.136Z,15.80
2023-01-28T10:59:20.233Z,14.40
2023-01-28T11:02:38.171Z,14.60
2023-01-28T11:05:43.110Z,15.10
2023-01-28T11:08:44.103Z,14.30
2023-01-28T11:11:44.107Z,14.40
2023-01-28T11:14:47.320Z,14.50
2023-01-28T11:17:48.195Z,14.30
2023-01-28T11:20:52.185Z,14.80
2023-01-28T11:23:59.571Z,14.80
2023-01-28T11:27:02.447Z,14.20
2023-01-28T11:30:08.336Z,14.10
2023-01-28T11:33:26.079Z,16.40
2023-01-28T11:36:29.147Z,14.40
2023-01-28T11:39:38.144Z,15.60
2023-01-28T11:42:38.241Z,14.20
2023-01-28T11:45:49.186Z,14.10
2023-01-28T11:49:15.172Z,15.50
2023-01-28T11:52:55.338Z,14.70
2023-01-28T11:56:19.184Z,15.70
2023-01-28T11:59:29.214Z,13.90
2023-01-28T12:02:43.351Z,16.00
2023-01-28T12:06:00.396Z,15.90
2023-01-28T12:09:20.988Z,15.00
2023-01-28T12:12:56.268Z,15.20
2023-01-28T12:16:40.274Z,14.40
2023-01-28T12:20:14.506Z,14.10
2023-01-28T12:23:43.711Z,15.80
2023-01-28T12:26:59.293Z,13.60
2023-01-28T12:30:19.248Z,15.50
2023-01-28T12:33:42.281Z,15.80
2023-01-28T12:37:18.255Z,14.20
2023-01-28T12:40:29.809Z,14.30
2023-01-28T12:44:03.323Z,13.50
2023-01-28T12:47:08.300Z,13.60
2023-01-28T12:50:18.694Z,15.40
2023-01-28T12:53:33.292Z,15.00
2023-01-28T12:56:37.320Z,15.40
2023-01-28T12:59:52.294Z,14.30
2023-01-28T13:02:59.379Z,14.70
2023-01-28T13:06:05.566Z,16.40
2023-01-28T13:09:09.365Z,14.90
2023-01-28T13:12:11.274Z,14.00
2023-01-28T13:15:17.701Z,15.00
2023-01-28T13:18:20.420Z,14.00
2023-01-28T13:21:27.837Z,13.40
2023-01-28T13:24:28.494Z,12.80
2023-01-28T13:27:35.376Z,13.10
2023-01-28T13:30:39.464Z,12.20
2023-01-28T13:33:51.425Z,14.90
2023-01-28T13:37:06.008Z,16.30
2023-01-28T13:40:16.515Z,15.40
2023-01-28T13:43:43.969Z,14.20
2023-01-28T13:46:53.772Z,14.80
2023-01-28T13:50:00.436Z,14.80
2023-01-28T13:53:49.516Z,15.30
2023-01-28T13:57:27.417Z,16.30
2023-01-28T14:00:49.573Z,16.40
2023-01-28T14:04:22.389Z,15.70
2023-01-28T14:07:44.334Z,15.70
2023-01-28T14:11:04.750Z,14.70
2023-01-28T14:14:37.379Z,15.70
2023-01-28T14:18:04.465Z,14.40
2023-01-28T14:21:16.986Z,14.50
2023-01-28T14:24:19.489Z,14.50
2023-01-28T14:27:29.412Z,15.90
2023-01-28T14:30:41.636Z,15.50
2023-01-28T14:33:42.427Z,15.50
2023-01-28T14:36:44.436Z,16.10
2023-01-28T14:39:47.442Z,18.00
2023-01-28T14:46:45.515Z,18.60
2023-01-28T14:50:07.419Z,18.40
2023-01-28T14:53:32.026Z,16.80
2023-01-28T14:56:40.532Z,17.20
2023-01-28T15:00:08.422Z,16.60
2023-01-28T15:03:23.143Z,18.00
2023-01-28T15:06:31.465Z,17.30
2023-01-28T15:09:34.699Z,18.10
2023-01-28T15:12:35.516Z,20.60
2023-01-28T15:16:04.485Z,20.20
2023-01-28T15:19:06.525Z,19.40
2023-01-28T15:22:19.720Z,20.60
2023-01-28T15:25:26.448Z,21.30
2023-01-28T15:28:30.586Z,20.40
2023-01-28T15:31:49.434Z,21.20
2023-01-28T15:34:58.548Z,21.20
2023-01-28T15:37:58.713Z,25.10
2023-01-28T15:41:04.561Z,26.80
2023-01-28T15:44:05.494Z,23.90
2023-01-28T15:47:05.724Z,23.20
2023-01-28T15:50:07.791Z,24.60
2023-01-28T15:53:08.510Z,24.70
2023-01-28T15:56:17.716Z,22.40
2023-01-28T15:59:31.752Z,24.20
2023-01-28T16:02:41.542Z,24.40
2023-01-28T16:05:52.685Z,23.30
2023-01-28T16:09:20.545Z,22.10
2023-01-28T16:12:22.693Z,23.60
2023-01-28T16:15:29.553Z,21.80
2023-01-28T16:18:42.593Z,23.30
2023-01-28T16:21:50.287Z,25.40
2023-01-28T16:25:01.620Z,24.30
2023-01-28T16:28:02.225Z,22.70
2023-01-28T16:31:02.718Z,19.20
2023-01-28T16:34:02.611Z,19.70
2023-01-28T16:37:02.676Z,14.90
2023-01-28T16:40:05.443Z,15.70
2023-01-28T16:43:08.883Z,14.30
2023-01-28T16:46:09.899Z,14.40
2023-01-28T16:52:13.634Z,16.20
2023-01-28T16:55:15.224Z,13.00
2023-01-28T16:58:19.683Z,14.20
2023-01-28T17:01:21.735Z,14.40
2023-01-28T17:04:24.829Z,14.10
2023-01-28T17:07:30.100Z,14.60
2023-01-28T17:10:30.756Z,13.60
2023-01-28T17:13:33.720Z,13.70
2023-01-28T17:16:33.710Z,11.80
2023-01-28T17:19:33.892Z,12.40
2023-01-28T17:22:33.685Z,11.10
2023-01-28T17:25:33.728Z,11.50
2023-01-28T17:28:36.716Z,10.80
2023-01-28T17:31:36.821Z,11.10
2023-01-28T17:34:38.832Z,11.70
2023-01-28T17:37:38.685Z,11.20
2023-01-28T17:40:38.895Z,11.50
2023-01-28T17:43:40.750Z,11.60
2023-01-28T17:46:40.778Z,11.10
2023-01-28T17:49:42.970Z,10.20
2023-01-28T17:52:44.855Z,9.70
2023-01-28T17:55:44.828Z,9.10
2023-01-28T17:58:49.150Z,9.30
2023-01-28T18:01:53.853Z,8.70
2023-01-28T18:04:53.892Z,9.10
2023-01-28T18:08:07.083Z,8.70
2023-01-28T18:11:18.757Z,9.60
2023-01-28T18:17:35.881Z,8.90
2023-01-28T18:20:38.985Z,8.10
2023-01-28T18:23:49.385Z,8.30
2023-01-28T18:30:20.975Z,7.80
2023-01-28T18:33:29.194Z,7.50
2023-01-28T18:36:38.849Z,7.70
2023-01-28T18:39:42.263Z,7.80
2023-01-28T18:42:44.848Z,9.00
2023-01-28T18:45:57.989Z,9.30
2023-01-28T18:49:01.943Z,9.70
2023-01-28T18:52:02.799Z,13.60
2023-01-28T18:55:03.847Z,22.00
2023-01-28T18:58:03.926Z,18.60
2023-01-28T19:01:07.008Z,14.90
2023-01-28T19:04:08.187Z,12.50
2023-01-28T19:07:10.824Z,11.60
2023-01-28T19:10:15.127Z,14.10
2023-01-28T19:13:14.938Z,11.00
2023-01-28T19:16:17.192Z,9.60
2023-01-28T19:19:17.927Z,10.20
2023-01-28T19:22:22.887Z,13.50
2023-01-28T19:25:24.869Z,12.00
2023-01-28T19:28:31.019Z,10.10
2023-01-28T19:31:32.078Z,9.90
2023-01-28T19:34:31.927Z,9.60
2023-01-28T19:37:32.080Z,9.50
2023-01-28T19:40:32.918Z,8.20
2023-01-28T19:43:33.969Z,8.80
2023-01-28T19:49:35.926Z,7.60
2023-01-28T19:52:29.019Z,8.20
2023-01-28T19:55:32.118Z,8.50
2023-01-28T19:58:35.273Z,8.10
2023-01-28T20:01:41.983Z,6.80
2023-01-28T20:05:00.211Z,7.60
2023-01-28T20:08:00.984Z,8.40
2023-01-28T20:11:02.981Z,8.30
2023-01-28T20:14:09.508Z,7.90
2023-01-28T20:17:12.222Z,8.40
2023-01-28T20:20:13.989Z,8.50
2023-01-28T20:23:14.996Z,7.40
2023-01-28T20:26:21.075Z,8.30
2023-01-28T20:29:28.907Z,7.70
2023-01-28T20:32:32.550Z,8.50
2023-01-28T20:35:33.002Z,7.50
2023-01-28T20:38:35.015Z,8.00
2023-01-28T20:41:36.995Z,8.30
2023-01-28T20:44:38.150Z,7.70
2023-01-28T20:47:40.145Z,10.00
2023-01-28T20:50:41.006Z,8.70
2023-01-28T20:53:41.132Z,7.70
2023-01-28T20:56:41.071Z,8.40
2023-01-28T20:59:41.065Z,8.90
2023-01-28T21:02:44.716Z,9.00
2023-01-28T21:05:49.129Z,8.70
2023-01-28T21:08:53.054Z,9.10
2023-01-28T21:11:54.865Z,8.70
2023-01-28T21:14:56.107Z,9.00
2023-01-28T21:17:58.067Z,9.40
2023-01-28T21:21:02.027Z,10.10
2023-01-28T21:24:04.200Z,10.20
2023-01-28T21:27:05.359Z,10.20
2023-01-28T21:30:08.071Z,10.40
2023-01-28T21:33:12.094Z,9.20
2023-01-28T21:36:12.089Z,11.50
2023-01-28T21:39:12.092Z,8.70
2023-01-28T21:42:13.133Z,11.80
2023-01-28T21:45:16.432Z,10.60
2023-01-28T21:48:17.172Z,10.40
2023-01-28T21:51:37.217Z,11.50
2023-01-28T21:54:37.106Z,13.00
2023-01-28T21:57:41.325Z,12.10
2023-01-28T22:00:41.126Z,10.30
2023-01-28T22:03:46.131Z,11.60
2023-01-28T22:07:01.566Z,10.50
2023-01-28T22:10:02.123Z,11.70
2023-01-28T22:13:03.307Z,13.30
2023-01-28T22:16:05.085Z,10.10
2023-01-28T22:19:06.204Z,11.50
2023-01-28T22:22:08.237Z,10.80
2023-01-28T22:25:08.213Z,10.10
2023-01-28T22:28:08.143Z,9.90
2023-01-28T22:31:20.670Z,9.40
2023-01-28T22:34:21.314Z,10.70
2023-01-28T22:37:21.225Z,10.10
2023-01-28T22:40:22.312Z,12.10
2023-01-28T22:43:25.525Z,10.50
2023-01-28T22:46:26.472Z,11.70
2023-01-28T22:49:32.588Z,11.40
2023-01-28T22:52:35.109Z,10.00
2023-01-28T22:55:37.493Z,12.30
2023-01-28T22:58:41.086Z,10.90
2023-01-28T23:01:43.647Z,9.20
2023-01-28T23:04:44.883Z,11.40
2023-01-28T23:07:51.257Z,11.20
2023-01-28T23:14:50.501Z,13.60
2023-01-28T23:18:10.378Z,13.90
2023-01-28T23:21:29.276Z,12.50
2023-01-28T23:24:32.729Z,12.80
2023-01-28T23:27:35.551Z,12.50
2023-01-28T23:33:39.298Z,13.70
2023-01-28T23:36:41.523Z,12.60
2023-01-28T23:39:41.316Z,14.00
2023-01-28T23:42:41.409Z,13.20
2023-01-28T23:45:42.463Z,13.10
2023-01-28T23:48:44.780Z,13.10
2023-01-28T23:51:46.275Z,14.00
2023-01-28T23:54:46.286Z,13.20
2023-01-28T23:57:50.719Z,12.50
